sensor_id;sensor_type;location;lat;lon;timestamp;temperature;humidity
36660;DHT22;22654;51.054;3.654;2023-08-07T00:00:23;11.70;99.90
36660;DHT22;22654;51.054;3.654;2023-08-07T00:02:49;11.70;99.90
36660;DHT22;22654;51.054;3.654;2023-08-07T00:05:15;11.60;99.90
36660;DHT22;22654;51.054;3.654;2023-08-07T00:07:47;11.60;99.90
36660;DHT22;22654;51.054;3.654;2023-08-07T00:10:13;11.50;99.90
36660;DHT22;22654;51.054;3.654;2023-08-07T00:12:40;11.40;99.90
36660;DHT22;22654;51.054;3.654;2023-08-07T00:15:07;11.30;99.90
36660;DHT22;22654;51.054;3.654;2023-08-07T00:17:33;11.40;99.90
36660;DHT22;22654;51.054;3.654;2023-08-07T00:19:58;11.20;99.90
36660;DHT22;22654;51.054;3.654;2023-08-07T00:22:24;11.20;99.90
36660;DHT22;22654;51.054;3.654;2023-08-07T00:24:56;11.20;99.90
36660;DHT22;22654;51.054;3.654;2023-08-07T00:27:22;11.20;99.90
36660;DHT22;22654;51.054;3.654;2023-08-07T00:29:48;11.20;99.90
36660;DHT22;22654;51.054;3.654;2023-08-07T00:32:17;11.10;99.90
36660;DHT22;22654;51.054;3.654;2023-08-07T00:34:43;11.10;99.90
36660;DHT22;22654;51.054;3.654;2023-08-07T00:37:09;11.00;99.90
36660;DHT22;22654;51.054;3.654;2023-08-07T00:39:35;11.10;99.90
36660;DHT22;22654;51.054;3.654;2023-08-07T00:42:01;11.20;99.90
36660;DHT22;22654;51.054;3.654;2023-08-07T00:44:26;11.10;99.90
36660;DHT22;22654;51.054;3.654;2023-08-07T00:46:52;11.10;99.90
36660;DHT22;22654;51.054;3.654;2023-08-07T00:49:20;11.00;99.90
36660;DHT22;22654;51.054;3.654;2023-08-07T00:51:47;11.00;99.90
36660;DHT22;22654;51.054;3.654;2023-08-07T00:54:15;11.00;99.90
36660;DHT22;22654;51.054;3.654;2023-08-07T00:56:44;11.00;99.90
36660;DHT22;22654;51.054;3.654;2023-08-07T00:59:10;11.00;99.90
36660;DHT22;22654;51.054;3.654;2023-08-07T01:01:36;11.10;99.90
36660;DHT22;22654;51.054;3.654;2023-08-07T01:04:02;11.10;99.90
36660;DHT22;22654;51.054;3.654;2023-08-07T01:06:28;11.10;99.90
36660;DHT22;22654;51.054;3.654;2023-08-07T01:08:54;11.00;99.90
36660;DHT22;22654;51.054;3.654;2023-08-07T01:17:22;10.90;99.90
36660;DHT22;22654;51.054;3.654;2023-08-07T01:19:50;10.80;99.90
36660;DHT22;22654;51.054;3.654;2023-08-07T01:22:18;10.70;99.90
36660;DHT22;22654;51.054;3.654;2023-08-07T01:24:47;10.70;99.90
36660;DHT22;22654;51.054;3.654;2023-08-07T01:32:21;10.70;99.90
36660;DHT22;22654;51.054;3.654;2023-08-07T01:34:48;10.60;99.90
36660;DHT22;22654;51.054;3.654;2023-08-07T01:37:16;10.60;99.90
36660;DHT22;22654;51.054;3.654;2023-08-07T01:39:46;10.60;99.90
36660;DHT22;22654;51.054;3.654;2023-08-07T01:42:13;10.60;99.90
36660;DHT22;22654;51.054;3.654;2023-08-07T01:44:39;10.60;99.90
36660;DHT22;22654;51.054;3.654;2023-08-07T01:47:05;10.60;99.90
36660;DHT22;22654;51.054;3.654;2023-08-07T01:49:31;10.70;99.90
36660;DHT22;22654;51.054;3.654;2023-08-07T01:51:58;10.60;99.90
36660;DHT22;22654;51.054;3.654;2023-08-07T01:54:24;10.60;99.90
36660;DHT22;22654;51.054;3.654;2023-08-07T01:56:49;10.60;99.90
36660;DHT22;22654;51.054;3.654;2023-08-07T01:59:15;10.70;99.90
36660;DHT22;22654;51.054;3.654;2023-08-07T02:01:41;10.60;99.90
36660;DHT22;22654;51.054;3.654;2023-08-07T02:04:07;10.60;99.90
36660;DHT22;22654;51.054;3.654;2023-08-07T02:06:33;10.60;99.90
36660;DHT22;22654;51.054;3.654;2023-08-07T02:08:58;10.60;99.90
36660;DHT22;22654;51.054;3.654;2023-08-07T02:11:24;10.60;99.90
36660;DHT22;22654;51.054;3.654;2023-08-07T02:13:50;10.80;99.90
36660;DHT22;22654;51.054;3.654;2023-08-07T02:16:16;10.70;99.90
36660;DHT22;22654;51.054;3.654;2023-08-07T02:18:42;10.70;99.90
36660;DHT22;22654;51.054;3.654;2023-08-07T02:21:07;10.80;99.90
36660;DHT22;22654;51.054;3.654;2023-08-07T02:23:34;10.70;99.90
36660;DHT22;22654;51.054;3.654;2023-08-07T02:26:01;10.80;99.90
36660;DHT22;22654;51.054;3.654;2023-08-07T02:28:27;10.70;99.90
36660;DHT22;22654;51.054;3.654;2023-08-07T02:30:53;10.70;99.90
36660;DHT22;22654;51.054;3.654;2023-08-07T02:33:19;10.80;99.90
36660;DHT22;22654;51.054;3.654;2023-08-07T02:35:45;10.80;99.90
36660;DHT22;22654;51.054;3.654;2023-08-07T02:38:11;10.80;99.90
36660;DHT22;22654;51.054;3.654;2023-08-07T02:40:37;10.90;99.90
36660;DHT22;22654;51.054;3.654;2023-08-07T02:43:03;11.00;99.90
36660;DHT22;22654;51.054;3.654;2023-08-07T02:45:29;11.00;99.90
36660;DHT22;22654;51.054;3.654;2023-08-07T02:47:55;11.10;99.90
36660;DHT22;22654;51.054;3.654;2023-08-07T02:50:21;11.00;99.90
36660;DHT22;22654;51.054;3.654;2023-08-07T02:52:46;11.10;99.90
36660;DHT22;22654;51.054;3.654;2023-08-07T02:55:12;11.10;99.90
36660;DHT22;22654;51.054;3.654;2023-08-07T02:57:38;11.00;99.90
36660;DHT22;22654;51.054;3.654;2023-08-07T03:00:05;10.90;99.90
36660;DHT22;22654;51.054;3.654;2023-08-07T03:02:31;10.80;99.90
36660;DHT22;22654;51.054;3.654;2023-08-07T03:04:57;10.70;99.90
36660;DHT22;22654;51.054;3.654;2023-08-07T03:07:23;10.70;99.90
36660;DHT22;22654;51.054;3.654;2023-08-07T03:09:49;10.60;99.90
36660;DHT22;22654;51.054;3.654;2023-08-07T03:12:14;10.50;99.90
36660;DHT22;22654;51.054;3.654;2023-08-07T03:14:40;10.50;99.90
36660;DHT22;22654;51.054;3.654;2023-08-07T03:17:06;10.50;99.90
36660;DHT22;22654;51.054;3.654;2023-08-07T03:19:32;10.50;99.90
36660;DHT22;22654;51.054;3.654;2023-08-07T03:21:58;10.60;99.90
36660;DHT22;22654;51.054;3.654;2023-08-07T03:24:23;10.60;99.90
36660;DHT22;22654;51.054;3.654;2023-08-07T03:26:49;10.50;99.90
36660;DHT22;22654;51.054;3.654;2023-08-07T03:29:16;10.60;99.90
36660;DHT22;22654;51.054;3.654;2023-08-07T03:31:43;10.60;99.90
36660;DHT22;22654;51.054;3.654;2023-08-07T03:34:09;10.50;99.90
36660;DHT22;22654;51.054;3.654;2023-08-07T03:36:36;10.40;99.90
36660;DHT22;22654;51.054;3.654;2023-08-07T03:39:02;10.40;99.90
36660;DHT22;22654;51.054;3.654;2023-08-07T03:41:28;10.50;99.90
36660;DHT22;22654;51.054;3.654;2023-08-07T03:43:54;10.60;99.90
36660;DHT22;22654;51.054;3.654;2023-08-07T03:46:20;10.50;99.90
36660;DHT22;22654;51.054;3.654;2023-08-07T03:48:46;10.50;99.90
36660;DHT22;22654;51.054;3.654;2023-08-07T03:51:16;10.50;99.90
36660;DHT22;22654;51.054;3.654;2023-08-07T03:53:49;10.50;99.90
36660;DHT22;22654;51.054;3.654;2023-08-07T03:56:15;10.40;99.90
36660;DHT22;22654;51.054;3.654;2023-08-07T03:58:41;10.50;99.90
36660;DHT22;22654;51.054;3.654;2023-08-07T04:01:07;10.50;99.90
36660;DHT22;22654;51.054;3.654;2023-08-07T04:03:34;10.50;99.90
36660;DHT22;22654;51.054;3.654;2023-08-07T04:06:00;10.60;99.90
36660;DHT22;22654;51.054;3.654;2023-08-07T04:08:27;10.60;99.90
36660;DHT22;22654;51.054;3.654;2023-08-07T04:11:03;10.50;99.90
36660;DHT22;22654;51.054;3.654;2023-08-07T04:13:31;10.50;99.90
36660;DHT22;22654;51.054;3.654;2023-08-07T04:15:57;10.50;99.90
36660;DHT22;22654;51.054;3.654;2023-08-07T04:18:23;10.40;99.90
36660;DHT22;22654;51.054;3.654;2023-08-07T04:20:51;10.40;99.90
36660;DHT22;22654;51.054;3.654;2023-08-07T04:23:20;10.50;99.90
36660;DHT22;22654;51.054;3.654;2023-08-07T04:25:47;10.50;99.90
36660;DHT22;22654;51.054;3.654;2023-08-07T04:28:13;10.60;99.90
36660;DHT22;22654;51.054;3.654;2023-08-07T04:30:42;10.60;99.90
36660;DHT22;22654;51.054;3.654;2023-08-07T04:33:08;10.50;99.90
36660;DHT22;22654;51.054;3.654;2023-08-07T04:35:34;10.60;99.90
36660;DHT22;22654;51.054;3.654;2023-08-07T04:38:00;10.50;99.90
36660;DHT22;22654;51.054;3.654;2023-08-07T04:40:28;10.50;99.90
36660;DHT22;22654;51.054;3.654;2023-08-07T04:42:54;10.50;99.90
36660;DHT22;22654;51.054;3.654;2023-08-07T04:45:20;10.60;99.90
36660;DHT22;22654;51.054;3.654;2023-08-07T04:47:46;10.70;99.90
36660;DHT22;22654;51.054;3.654;2023-08-07T04:50:12;10.70;99.90
36660;DHT22;22654;51.054;3.654;2023-08-07T04:52:37;10.70;99.90
36660;DHT22;22654;51.054;3.654;2023-08-07T04:55:04;10.80;99.90
36660;DHT22;22654;51.054;3.654;2023-08-07T04:57:30;10.80;99.90
36660;DHT22;22654;51.054;3.654;2023-08-07T04:59:56;10.80;99.90
36660;DHT22;22654;51.054;3.654;2023-08-07T05:02:22;10.90;99.90
36660;DHT22;22654;51.054;3.654;2023-08-07T05:04:48;11.00;99.90
36660;DHT22;22654;51.054;3.654;2023-08-07T05:07:14;11.00;99.90
36660;DHT22;22654;51.054;3.654;2023-08-07T05:09:40;11.00;99.90
36660;DHT22;22654;51.054;3.654;2023-08-07T05:12:06;11.00;99.90
36660;DHT22;22654;51.054;3.654;2023-08-07T05:14:33;11.20;99.90
36660;DHT22;22654;51.054;3.654;2023-08-07T05:16:58;11.30;99.90
36660;DHT22;22654;51.054;3.654;2023-08-07T05:19:27;11.40;99.90
36660;DHT22;22654;51.054;3.654;2023-08-07T05:21:53;11.50;99.90
36660;DHT22;22654;51.054;3.654;2023-08-07T05:24:18;11.60;99.90
36660;DHT22;22654;51.054;3.654;2023-08-07T05:26:45;11.70;99.90
36660;DHT22;22654;51.054;3.654;2023-08-07T05:29:11;11.80;99.90
36660;DHT22;22654;51.054;3.654;2023-08-07T05:31:42;11.90;99.90
36660;DHT22;22654;51.054;3.654;2023-08-07T05:34:08;12.00;99.90
36660;DHT22;22654;51.054;3.654;2023-08-07T05:36:34;12.10;99.90
36660;DHT22;22654;51.054;3.654;2023-08-07T05:39:01;12.30;99.90
36660;DHT22;22654;51.054;3.654;2023-08-07T05:41:26;12.50;99.90
36660;DHT22;22654;51.054;3.654;2023-08-07T05:43:52;12.50;99.90
36660;DHT22;22654;51.054;3.654;2023-08-07T05:46:18;12.50;99.90
36660;DHT22;22654;51.054;3.654;2023-08-07T05:48:44;12.60;99.90
36660;DHT22;22654;51.054;3.654;2023-08-07T05:51:10;12.60;99.90
36660;DHT22;22654;51.054;3.654;2023-08-07T05:53:36;12.70;99.90
36660;DHT22;22654;51.054;3.654;2023-08-07T05:56:02;12.90;99.90
36660;DHT22;22654;51.054;3.654;2023-08-07T05:58:28;12.90;99.90
36660;DHT22;22654;51.054;3.654;2023-08-07T06:00:54;13.00;99.90
36660;DHT22;22654;51.054;3.654;2023-08-07T06:03:20;13.20;99.90
36660;DHT22;22654;51.054;3.654;2023-08-07T06:05:46;13.40;99.90
36660;DHT22;22654;51.054;3.654;2023-08-07T06:08:11;13.50;99.90
36660;DHT22;22654;51.054;3.654;2023-08-07T06:10:37;13.70;99.90
36660;DHT22;22654;51.054;3.654;2023-08-07T06:13:03;13.80;99.90
36660;DHT22;22654;51.054;3.654;2023-08-07T06:15:32;14.00;99.90
36660;DHT22;22654;51.054;3.654;2023-08-07T06:17:58;14.70;99.90
36660;DHT22;22654;51.054;3.654;2023-08-07T06:20:23;15.90;99.90
36660;DHT22;22654;51.054;3.654;2023-08-07T06:22:49;16.60;99.90
36660;DHT22;22654;51.054;3.654;2023-08-07T06:25:15;17.50;99.90
36660;DHT22;22654;51.054;3.654;2023-08-07T06:27:41;18.00;99.90
36660;DHT22;22654;51.054;3.654;2023-08-07T06:30:07;18.00;99.90
36660;DHT22;22654;51.054;3.654;2023-08-07T06:32:33;17.90;99.90
36660;DHT22;22654;51.054;3.654;2023-08-07T06:34:59;17.80;99.90
36660;DHT22;22654;51.054;3.654;2023-08-07T06:37:25;17.90;99.90
36660;DHT22;22654;51.054;3.654;2023-08-07T06:39:51;18.30;99.90
36660;DHT22;22654;51.054;3.654;2023-08-07T06:42:17;19.80;99.90
36660;DHT22;22654;51.054;3.654;2023-08-07T06:44:43;21.70;99.90
36660;DHT22;22654;51.054;3.654;2023-08-07T06:47:12;23.50;99.90
36660;DHT22;22654;51.054;3.654;2023-08-07T06:49:42;25.10;99.70
36660;DHT22;22654;51.054;3.654;2023-08-07T06:52:08;25.80;98.30
36660;DHT22;22654;51.054;3.654;2023-08-07T06:54:33;26.60;96.30
36660;DHT22;22654;51.054;3.654;2023-08-07T06:56:59;27.10;95.50
36660;DHT22;22654;51.054;3.654;2023-08-07T06:59:25;27.80;94.20
36660;DHT22;22654;51.054;3.654;2023-08-07T07:01:51;28.40;93.40
36660;DHT22;22654;51.054;3.654;2023-08-07T07:04:17;28.80;91.70
36660;DHT22;22654;51.054;3.654;2023-08-07T07:06:43;28.80;91.40
36660;DHT22;22654;51.054;3.654;2023-08-07T07:09:09;29.00;90.80
36660;DHT22;22654;51.054;3.654;2023-08-07T07:11:35;29.20;90.40
36660;DHT22;22654;51.054;3.654;2023-08-07T07:14:03;29.30;90.10
36660;DHT22;22654;51.054;3.654;2023-08-07T07:16:29;29.70;89.70
36660;DHT22;22654;51.054;3.654;2023-08-07T07:18:54;30.30;87.80
36660;DHT22;22654;51.054;3.654;2023-08-07T07:21:21;30.70;87.20
36660;DHT22;22654;51.054;3.654;2023-08-07T07:23:47;30.80;86.00
36660;DHT22;22654;51.054;3.654;2023-08-07T07:26:13;30.60;84.10
36660;DHT22;22654;51.054;3.654;2023-08-07T07:28:39;30.30;84.80
36660;DHT22;22654;51.054;3.654;2023-08-07T07:31:05;29.90;85.50
36660;DHT22;22654;51.054;3.654;2023-08-07T07:33:31;30.20;84.50
36660;DHT22;22654;51.054;3.654;2023-08-07T07:35:57;30.40;84.20
36660;DHT22;22654;51.054;3.654;2023-08-07T07:38:23;30.50;83.70
36660;DHT22;22654;51.054;3.654;2023-08-07T07:40:48;30.10;84.90
36660;DHT22;22654;51.054;3.654;2023-08-07T07:43:14;29.80;84.90
36660;DHT22;22654;51.054;3.654;2023-08-07T07:45:40;29.40;84.20
36660;DHT22;22654;51.054;3.654;2023-08-07T07:48:06;28.50;85.80
36660;DHT22;22654;51.054;3.654;2023-08-07T07:50:33;27.40;87.90
36660;DHT22;22654;51.054;3.654;2023-08-07T07:52:59;26.70;87.90
36660;DHT22;22654;51.054;3.654;2023-08-07T07:55:25;25.80;88.10
36660;DHT22;22654;51.054;3.654;2023-08-07T07:57:51;24.60;90.80
36660;DHT22;22654;51.054;3.654;2023-08-07T08:00:17;24.30;91.80
36660;DHT22;22654;51.054;3.654;2023-08-07T08:02:45;24.80;91.90
36660;DHT22;22654;51.054;3.654;2023-08-07T08:05:12;25.60;90.20
36660;DHT22;22654;51.054;3.654;2023-08-07T08:07:38;25.30;90.40
36660;DHT22;22654;51.054;3.654;2023-08-07T08:10:07;24.10;91.50
36660;DHT22;22654;51.054;3.654;2023-08-07T08:12:35;22.50;92.40
36660;DHT22;22654;51.054;3.654;2023-08-07T08:15:01;21.90;94.10
36660;DHT22;22654;51.054;3.654;2023-08-07T08:17:27;22.10;93.10
36660;DHT22;22654;51.054;3.654;2023-08-07T08:19:53;22.60;92.50
36660;DHT22;22654;51.054;3.654;2023-08-07T08:22:19;23.10;92.80
36660;DHT22;22654;51.054;3.654;2023-08-07T08:24:44;21.80;94.00
36660;DHT22;22654;51.054;3.654;2023-08-07T08:27:10;21.10;94.10
36660;DHT22;22654;51.054;3.654;2023-08-07T08:29:36;20.70;95.00
36660;DHT22;22654;51.054;3.654;2023-08-07T08:32:02;20.20;96.70
36660;DHT22;22654;51.054;3.654;2023-08-07T08:34:28;20.00;96.60
36660;DHT22;22654;51.054;3.654;2023-08-07T08:36:56;19.80;96.40
36660;DHT22;22654;51.054;3.654;2023-08-07T08:39:22;19.70;96.90
36660;DHT22;22654;51.054;3.654;2023-08-07T08:41:49;19.90;96.20
36660;DHT22;22654;51.054;3.654;2023-08-07T08:44:17;20.10;96.50
36660;DHT22;22654;51.054;3.654;2023-08-07T08:46:46;20.30;96.30
36660;DHT22;22654;51.054;3.654;2023-08-07T08:49:16;20.50;96.10
36660;DHT22;22654;51.054;3.654;2023-08-07T08:51:44;20.70;96.30
36660;DHT22;22654;51.054;3.654;2023-08-07T08:54:11;20.60;95.10
36660;DHT22;22654;51.054;3.654;2023-08-07T08:56:37;20.60;96.20
36660;DHT22;22654;51.054;3.654;2023-08-07T08:59:03;20.50;95.90
36660;DHT22;22654;51.054;3.654;2023-08-07T09:01:30;20.60;96.80
36660;DHT22;22654;51.054;3.654;2023-08-07T09:03:57;20.70;96.80
36660;DHT22;22654;51.054;3.654;2023-08-07T09:06:25;20.90;95.90
36660;DHT22;22654;51.054;3.654;2023-08-07T09:08:53;21.00;95.80
36660;DHT22;22654;51.054;3.654;2023-08-07T09:11:19;21.00;95.70
36660;DHT22;22654;51.054;3.654;2023-08-07T09:13:47;21.10;96.40
36660;DHT22;22654;51.054;3.654;2023-08-07T09:16:14;21.40;96.50
36660;DHT22;22654;51.054;3.654;2023-08-07T09:18:40;21.00;96.40
36660;DHT22;22654;51.054;3.654;2023-08-07T09:21:06;20.80;96.70
36660;DHT22;22654;51.054;3.654;2023-08-07T09:23:32;20.60;97.10
36660;DHT22;22654;51.054;3.654;2023-08-07T09:26:03;20.90;97.00
36660;DHT22;22654;51.054;3.654;2023-08-07T09:28:31;21.30;97.20
36660;DHT22;22654;51.054;3.654;2023-08-07T09:30:58;21.40;97.60
36660;DHT22;22654;51.054;3.654;2023-08-07T09:33:30;21.30;96.60
36660;DHT22;22654;51.054;3.654;2023-08-07T09:36:01;20.60;98.00
36660;DHT22;22654;51.054;3.654;2023-08-07T09:38:31;20.40;98.00
36660;DHT22;22654;51.054;3.654;2023-08-07T09:41:01;20.40;97.50
36660;DHT22;22654;51.054;3.654;2023-08-07T09:43:29;20.30;97.60
36660;DHT22;22654;51.054;3.654;2023-08-07T09:46:03;20.60;98.30
36660;DHT22;22654;51.054;3.654;2023-08-07T09:48:29;20.90;98.60
36660;DHT22;22654;51.054;3.654;2023-08-07T09:51:00;21.30;99.00
36660;DHT22;22654;51.054;3.654;2023-08-07T09:53:27;21.00;99.40
36660;DHT22;22654;51.054;3.654;2023-08-07T09:55:56;21.00;99.30
36660;DHT22;22654;51.054;3.654;2023-08-07T09:58:23;21.00;99.10
36660;DHT22;22654;51.054;3.654;2023-08-07T10:00:50;20.90;98.10
36660;DHT22;22654;51.054;3.654;2023-08-07T10:03:19;21.10;97.40
36660;DHT22;22654;51.054;3.654;2023-08-07T10:05:48;21.50;98.00
36660;DHT22;22654;51.054;3.654;2023-08-07T10:08:14;21.80;97.40
36660;DHT22;22654;51.054;3.654;2023-08-07T10:10:41;22.00;96.40
36660;DHT22;22654;51.054;3.654;2023-08-07T10:13:07;22.00;95.80
36660;DHT22;22654;51.054;3.654;2023-08-07T10:15:34;21.80;96.70
36660;DHT22;22654;51.054;3.654;2023-08-07T10:18:02;21.80;96.20
36660;DHT22;22654;51.054;3.654;2023-08-07T10:20:30;21.40;96.90
36660;DHT22;22654;51.054;3.654;2023-08-07T10:23:00;21.00;97.30
36660;DHT22;22654;51.054;3.654;2023-08-07T10:25:29;21.00;97.20
36660;DHT22;22654;51.054;3.654;2023-08-07T10:27:56;20.90;98.60
36660;DHT22;22654;51.054;3.654;2023-08-07T10:30:23;20.90;98.60
36660;DHT22;22654;51.054;3.654;2023-08-07T10:32:51;21.40;97.70
36660;DHT22;22654;51.054;3.654;2023-08-07T10:35:31;21.80;97.90
36660;DHT22;22654;51.054;3.654;2023-08-07T10:38:09;21.60;97.60
36660;DHT22;22654;51.054;3.654;2023-08-07T10:41:08;21.50;97.50
36660;DHT22;22654;51.054;3.654;2023-08-07T10:43:44;21.50;97.40
36660;DHT22;22654;51.054;3.654;2023-08-07T10:46:19;21.20;98.70
36660;DHT22;22654;51.054;3.654;2023-08-07T10:48:46;21.20;99.00
36660;DHT22;22654;51.054;3.654;2023-08-07T10:51:13;21.20;98.60
36660;DHT22;22654;51.054;3.654;2023-08-07T10:53:42;21.40;98.80
36660;DHT22;22654;51.054;3.654;2023-08-07T10:56:30;21.90;98.70
36660;DHT22;22654;51.054;3.654;2023-08-07T10:58:56;22.40;97.50
36660;DHT22;22654;51.054;3.654;2023-08-07T11:04:10;22.50;98.20
36660;DHT22;22654;51.054;3.654;2023-08-07T11:06:38;22.30;98.10
36660;DHT22;22654;51.054;3.654;2023-08-07T11:09:06;22.10;97.20
36660;DHT22;22654;51.054;3.654;2023-08-07T11:11:43;22.00;97.10
36660;DHT22;22654;51.054;3.654;2023-08-07T11:14:14;21.80;97.20
36660;DHT22;22654;51.054;3.654;2023-08-07T11:16:41;21.50;97.90
36660;DHT22;22654;51.054;3.654;2023-08-07T11:19:07;21.20;97.80
36660;DHT22;22654;51.054;3.654;2023-08-07T11:21:34;21.30;98.20
36660;DHT22;22654;51.054;3.654;2023-08-07T11:24:00;21.70;98.80
36660;DHT22;22654;51.054;3.654;2023-08-07T11:26:26;21.90;97.10
36660;DHT22;22654;51.054;3.654;2023-08-07T11:28:54;22.20;98.10
36660;DHT22;22654;51.054;3.654;2023-08-07T11:31:21;22.60;97.30
36660;DHT22;22654;51.054;3.654;2023-08-07T11:33:50;22.70;95.50
36660;DHT22;22654;51.054;3.654;2023-08-07T11:36:18;22.40;96.20
36660;DHT22;22654;51.054;3.654;2023-08-07T11:38:48;22.30;96.40
36660;DHT22;22654;51.054;3.654;2023-08-07T11:41:15;22.30;96.70
36660;DHT22;22654;51.054;3.654;2023-08-07T11:43:42;21.90;96.20
36660;DHT22;22654;51.054;3.654;2023-08-07T11:46:11;21.70;97.30
36660;DHT22;22654;51.054;3.654;2023-08-07T11:48:39;21.60;97.00
36660;DHT22;22654;51.054;3.654;2023-08-07T11:51:06;21.40;96.70
36660;DHT22;22654;51.054;3.654;2023-08-07T11:53:36;21.30;97.50
36660;DHT22;22654;51.054;3.654;2023-08-07T11:56:05;21.60;97.90
36660;DHT22;22654;51.054;3.654;2023-08-07T11:58:40;21.80;97.50
36660;DHT22;22654;51.054;3.654;2023-08-07T12:01:14;22.10;96.70
36660;DHT22;22654;51.054;3.654;2023-08-07T12:03:56;22.30;96.60
36660;DHT22;22654;51.054;3.654;2023-08-07T12:06:25;22.20;96.40
36660;DHT22;22654;51.054;3.654;2023-08-07T12:08:55;22.00;96.30
36660;DHT22;22654;51.054;3.654;2023-08-07T12:11:22;21.90;97.10
36660;DHT22;22654;51.054;3.654;2023-08-07T12:13:48;21.70;97.00
36660;DHT22;22654;51.054;3.654;2023-08-07T12:16:15;21.80;97.60
36660;DHT22;22654;51.054;3.654;2023-08-07T12:21:18;22.60;96.70
36660;DHT22;22654;51.054;3.654;2023-08-07T12:23:45;22.70;96.30
36660;DHT22;22654;51.054;3.654;2023-08-07T12:26:13;22.50;96.00
36660;DHT22;22654;51.054;3.654;2023-08-07T12:28:39;22.60;96.30
36660;DHT22;22654;51.054;3.654;2023-08-07T12:31:06;22.20;97.10
36660;DHT22;22654;51.054;3.654;2023-08-07T12:33:32;21.90;96.90
36660;DHT22;22654;51.054;3.654;2023-08-07T12:35:59;21.60;97.40
36660;DHT22;22654;51.054;3.654;2023-08-07T12:38:26;21.50;97.60
36660;DHT22;22654;51.054;3.654;2023-08-07T12:40:52;21.60;98.00
36660;DHT22;22654;51.054;3.654;2023-08-07T12:43:18;21.60;98.30
36660;DHT22;22654;51.054;3.654;2023-08-07T12:45:44;21.70;98.00
36660;DHT22;22654;51.054;3.654;2023-08-07T12:48:10;22.10;97.90
36660;DHT22;22654;51.054;3.654;2023-08-07T12:50:36;22.50;97.80
36660;DHT22;22654;51.054;3.654;2023-08-07T12:53:08;22.40;96.70
36660;DHT22;22654;51.054;3.654;2023-08-07T12:55:34;22.40;96.60
36660;DHT22;22654;51.054;3.654;2023-08-07T12:58:00;22.20;96.60
36660;DHT22;22654;51.054;3.654;2023-08-07T13:00:26;21.90;97.10
36660;DHT22;22654;51.054;3.654;2023-08-07T13:02:52;22.00;97.40
36660;DHT22;22654;51.054;3.654;2023-08-07T13:05:21;22.10;97.50
36660;DHT22;22654;51.054;3.654;2023-08-07T13:07:47;22.30;97.20
36660;DHT22;22654;51.054;3.654;2023-08-07T13:10:17;22.60;96.40
36660;DHT22;22654;51.054;3.654;2023-08-07T13:12:44;22.80;95.30
36660;DHT22;22654;51.054;3.654;2023-08-07T13:15:13;22.80;95.70
36660;DHT22;22654;51.054;3.654;2023-08-07T13:17:40;22.30;96.50
36660;DHT22;22654;51.054;3.654;2023-08-07T13:20:07;21.80;96.40
36660;DHT22;22654;51.054;3.654;2023-08-07T13:22:37;21.60;96.90
36660;DHT22;22654;51.054;3.654;2023-08-07T13:25:05;21.50;97.70
36660;DHT22;22654;51.054;3.654;2023-08-07T13:27:34;22.00;97.00
36660;DHT22;22654;51.054;3.654;2023-08-07T13:30:01;21.90;97.80
36660;DHT22;22654;51.054;3.654;2023-08-07T13:32:27;21.70;97.70
36660;DHT22;22654;51.054;3.654;2023-08-07T13:34:53;21.10;98.00
36660;DHT22;22654;51.054;3.654;2023-08-07T13:37:19;20.80;98.70
36660;DHT22;22654;51.054;3.654;2023-08-07T13:39:45;20.60;99.00
36660;DHT22;22654;51.054;3.654;2023-08-07T13:42:13;20.80;99.00
36660;DHT22;22654;51.054;3.654;2023-08-07T13:44:42;20.80;98.60
36660;DHT22;22654;51.054;3.654;2023-08-07T13:47:12;20.80;98.30
36660;DHT22;22654;51.054;3.654;2023-08-07T13:49:40;20.80;98.40
36660;DHT22;22654;51.054;3.654;2023-08-07T13:52:06;21.10;98.50
36660;DHT22;22654;51.054;3.654;2023-08-07T13:54:32;21.30;97.20
36660;DHT22;22654;51.054;3.654;2023-08-07T13:56:58;21.40;97.20
36660;DHT22;22654;51.054;3.654;2023-08-07T13:59:24;21.50;96.80
36660;DHT22;22654;51.054;3.654;2023-08-07T14:01:49;21.80;97.10
36660;DHT22;22654;51.054;3.654;2023-08-07T14:04:15;22.20;96.60
36660;DHT22;22654;51.054;3.654;2023-08-07T14:06:41;21.90;95.60
36660;DHT22;22654;51.054;3.654;2023-08-07T14:09:10;21.60;96.40
36660;DHT22;22654;51.054;3.654;2023-08-07T14:11:37;21.60;96.80
36660;DHT22;22654;51.054;3.654;2023-08-07T14:14:03;21.90;95.80
36660;DHT22;22654;51.054;3.654;2023-08-07T14:16:29;22.10;96.20
36660;DHT22;22654;51.054;3.654;2023-08-07T14:18:55;22.40;96.60
36660;DHT22;22654;51.054;3.654;2023-08-07T14:21:20;22.80;96.50
36660;DHT22;22654;51.054;3.654;2023-08-07T14:23:46;22.70;96.10
36660;DHT22;22654;51.054;3.654;2023-08-07T14:26:13;22.70;96.40
36660;DHT22;22654;51.054;3.654;2023-08-07T14:28:40;23.00;96.30
36660;DHT22;22654;51.054;3.654;2023-08-07T14:31:09;23.50;95.50
36660;DHT22;22654;51.054;3.654;2023-08-07T14:33:35;24.00;95.40
36660;DHT22;22654;51.054;3.654;2023-08-07T14:36:01;24.40;94.70
36660;DHT22;22654;51.054;3.654;2023-08-07T14:38:28;24.60;94.50
36660;DHT22;22654;51.054;3.654;2023-08-07T14:40:54;24.30;94.40
36660;DHT22;22654;51.054;3.654;2023-08-07T14:43:21;24.20;93.60
36660;DHT22;22654;51.054;3.654;2023-08-07T14:45:48;24.00;93.30
36660;DHT22;22654;51.054;3.654;2023-08-07T14:48:15;24.10;94.10
36660;DHT22;22654;51.054;3.654;2023-08-07T14:50:41;23.80;94.40
36660;DHT22;22654;51.054;3.654;2023-08-07T14:53:07;23.60;95.00
36660;DHT22;22654;51.054;3.654;2023-08-07T14:55:33;23.80;95.10
36660;DHT22;22654;51.054;3.654;2023-08-07T14:57:59;23.30;95.10
36660;DHT22;22654;51.054;3.654;2023-08-07T15:00:25;23.40;94.50
36660;DHT22;22654;51.054;3.654;2023-08-07T15:02:51;23.30;94.90
36660;DHT22;22654;51.054;3.654;2023-08-07T15:05:17;23.60;94.90
36660;DHT22;22654;51.054;3.654;2023-08-07T15:07:44;23.50;94.40
36660;DHT22;22654;51.054;3.654;2023-08-07T15:10:10;23.80;93.80
36660;DHT22;22654;51.054;3.654;2023-08-07T15:12:36;23.90;94.30
36660;DHT22;22654;51.054;3.654;2023-08-07T15:15:02;23.80;94.10
36660;DHT22;22654;51.054;3.654;2023-08-07T15:17:28;23.10;94.50
36660;DHT22;22654;51.054;3.654;2023-08-07T15:19:54;22.90;95.40
36660;DHT22;22654;51.054;3.654;2023-08-07T15:22:20;23.00;95.50
36660;DHT22;22654;51.054;3.654;2023-08-07T15:24:46;23.00;95.50
36660;DHT22;22654;51.054;3.654;2023-08-07T15:27:12;22.60;95.10
36660;DHT22;22654;51.054;3.654;2023-08-07T15:29:38;22.50;96.00
36660;DHT22;22654;51.054;3.654;2023-08-07T15:32:07;22.40;96.00
36660;DHT22;22654;51.054;3.654;2023-08-07T15:34:33;22.00;96.10
36660;DHT22;22654;51.054;3.654;2023-08-07T15:36:59;21.80;96.80
36660;DHT22;22654;51.054;3.654;2023-08-07T15:39:25;22.10;96.90
36660;DHT22;22654;51.054;3.654;2023-08-07T15:41:53;22.90;96.60
36660;DHT22;22654;51.054;3.654;2023-08-07T15:44:19;24.20;95.30